Pauline, Nebraska
Current Conditions -  °F | °C
As of 12:53 PM on Monday 20 Oct 2014 (Local Time) from KHSI Reporting Station
Clear Clear  
Wind Chill: 69°   Ceiling: Unl
Heat Index: 69°   Visibility: 10mi
Dew Point: 41°   Wind: 7mph
Humidity: 36%   Direction: 130°SE
Pressure: 30.12"   Gusts: NA
Location:  40.4809°N, 98.2217°W
Report Text: KHSI 201753Z AUTO 13006KT 10SM CLR 21/05 A3012 RMK AO2 SLP194 T02060050 10211 20050 58003
Loading
Personal Weather Stations






























Interactive Weather Map
Tropical Storm Tracking
New forecast layout! Learn more

10-Day Weather Forecast

Advertisements
Track Severe Weather on mobile